Time;durP1;ratioP1;P1;durP2;ratioP2;P2;SDS_P1;SDS_P2;PMS_P1;PMS_P2;Temp;Humidity;BMP_temperature;BMP_pressure;BME280_temperature;BME280_humidity;BME280_pressure;Samples;Min_cycle;Max_cycle;Signal;HPM_P1;HPM_P2
2022/09/24 00:01:18;;;;;;;5.28;4.97;;;;;;;11.88;100.00;100885.38;6061515;23;20100;-74
2022/09/24 00:04:00;;;;;;;6.28;5.78;;;;;;;10.46;100.00;100674.84;6076335;23;20266;-72
2022/09/24 00:06:29;;;;;;;7.38;6.88;;;;;;;12.00;100.00;100913.66;6052783;23;20520;-74
2022/09/24 00:08:57;;;;;;;6.20;5.70;;;;;;;11.95;100.00;100916.53;6081864;23;20108;-73
2022/09/24 00:11:25;;;;;;;7.20;6.63;;;;;;;11.89;100.00;100910.78;6047088;23;20015;-73
2022/09/24 00:13:52;;;;;;;5.97;5.57;;;;;;;11.84;100.00;100910.13;6057709;23;20017;-74
2022/09/24 00:16:21;;;;;;;6.78;6.38;;;;;;;11.81;100.00;100916.41;6043268;23;20092;-73
2022/09/24 00:18:48;;;;;;;6.15;5.65;;;;;;;11.79;100.00;100920.91;6073644;23;20045;-74
2022/09/24 00:21:20;;;;;;;6.93;5.57;;;;;;;11.81;100.00;100921.66;6050275;23;20014;-74
2022/09/24 00:23:53;;;;;;;5.93;5.40;;;;;;;11.70;100.00;100892.47;6087315;23;20018;-71
2022/09/24 00:29:07;;;;;;;5.93;5.53;;;;;;;10.67;100.00;100704.38;6084767;23;20105;-72
2022/09/24 00:31:34;;;;;;;7.90;7.40;;;;;;;11.77;100.00;100885.97;6058220;23;20117;-73
2022/09/24 00:34:01;;;;;;;6.80;5.72;;;;;;;12.08;100.00;100926.38;6083365;23;20030;-73
2022/09/24 00:36:27;;;;;;;7.90;7.40;;;;;;;11.81;100.00;100871.72;6045775;23;20086;-74
2022/09/24 00:38:56;;;;;;;6.28;5.47;;;;;;;11.75;100.00;100853.63;6031817;23;20026;-71
2022/09/24 00:41:27;;;;;;;7.03;6.60;;;;;;;12.20;100.00;100924.88;6088652;23;20391;-73
2022/09/24 00:43:53;;;;;;;7.40;6.18;;;;;;;12.23;100.00;100909.75;6029454;23;20030;-74
2022/09/24 00:46:41;;;;;;;6.57;5.95;;;;;;;12.26;100.00;100916.63;6054775;23;20010;-74
2022/09/24 00:49:18;;;;;;;6.05;5.57;;;;;;;12.03;100.00;100868.78;6087950;23;20028;-73
2022/09/24 00:51:49;;;;;;;6.60;6.10;;;;;;;12.00;100.00;100865.47;6051144;23;20022;-74
2022/09/24 00:54:23;;;;;;;6.15;5.75;;;;;;;12.31;100.00;100902.28;6079826;23;20026;-74
2022/09/24 00:56:51;;;;;;;6.20;5.78;;;;;;;12.33;100.00;100897.78;6053253;23;20022;-74
2022/09/24 00:59:20;;;;;;;6.85;6.25;;;;;;;12.34;100.00;100901.25;6077672;23;20080;-74
2022/09/24 01:01:48;;;;;;;6.03;5.53;;;;;;;12.11;100.00;100863.09;6050123;23;20084;-72
2022/09/24 01:04:20;;;;;;;6.82;6.20;;;;;;;12.33;100.00;100883.78;6071692;23;20621;-74
2022/09/24 01:06:48;;;;;;;6.30;5.90;;;;;;;12.31;100.00;100881.22;6055520;23;20084;-72
2022/09/24 01:09:16;;;;;;;6.72;6.22;;;;;;;12.00;100.00;100839.16;6054216;23;20087;-74
2022/09/24 01:11:59;;;;;;;7.35;6.70;;;;;;;12.29;100.00;100885.75;6020808;23;20471;-73
2022/09/24 01:14:41;;;;;;;8.65;7.80;;;;;;;12.27;100.00;100887.59;6056235;23;20037;-74
2022/09/24 01:17:24;;;;;;;10.15;6.57;;;;;;;12.24;100.00;100886.94;6031888;23;20022;-74
2022/09/24 01:20:19;;;;;;;6.85;6.35;;;;;;;12.16;100.00;100887.34;6049587;23;20022;-73
2022/09/24 01:22:56;;;;;;;12.02;6.47;;;;;;;12.12;100.00;100883.19;6016809;23;20008;-73
2022/09/24 01:25:44;;;;;;;7.35;6.57;;;;;;;12.09;100.00;100883.38;6041830;23;20081;-73
2022/09/24 01:28:38;;;;;;;6.68;6.13;;;;;;;12.08;100.00;100874.63;6022488;23;20519;-74
2022/09/24 01:31:15;;;;;;;10.55;6.40;;;;;;;12.01;100.00;100859.25;6059053;23;20025;-74
2022/09/24 01:33:48;;;;;;;5.72;5.38;;;;;;;12.06;100.00;100867.75;6013637;23;20098;-74
2022/09/24 01:36:16;;;;;;;7.75;7.18;;;;;;;11.84;100.00;100834.72;6046768;23;20452;-74
2022/09/24 01:38:46;;;;;;;7.30;6.70;;;;;;;11.47;100.00;100771.03;5996183;23;20020;-74
2022/09/24 01:41:15;;;;;;;11.15;6.22;;;;;;;11.69;100.00;100831.16;6051157;23;20022;-75
2022/09/24 01:43:42;;;;;;;6.35;5.75;;;;;;;11.95;100.00;100863.09;6025397;23;20029;-73
2022/09/24 01:46:11;;;;;;;5.88;5.38;;;;;;;11.71;100.00;100833.72;6045476;23;20076;-72
2022/09/24 01:48:39;;;;;;;6.45;6.05;;;;;;;11.94;100.00;100854.34;6028673;23;20040;-72
2022/09/24 01:51:06;;;;;;;6.45;5.82;;;;;;;11.94;100.00;100856.97;6054924;23;20015;-74
2022/09/24 01:53:39;;;;;;;5.90;5.50;;;;;;;11.60;100.00;100794.00;6025407;23;20019;-75
2022/09/24 01:56:29;;;;;;;6.82;5.57;;;;;;;11.95;100.00;100848.16;6056647;23;20080;-74
2022/09/24 01:59:01;;;;;;;9.07;5.57;;;;;;;11.09;100.00;100710.91;6026980;23;20019;-73
2022/09/24 02:01:44;;;;;;;7.90;7.30;;;;;;;11.95;100.00;100856.03;6049373;23;20084;-73
2022/09/24 02:04:15;;;;;;;6.35;5.55;;;;;;;11.83;100.00;100832.19;6025392;23;20281;-75
2022/09/24 02:06:46;;;;;;;6.35;5.70;;;;;;;11.96;100.00;100838.47;6045793;23;20080;-74
2022/09/24 02:09:29;;;;;;;6.38;5.88;;;;;;;11.94;100.00;100843.81;6030792;23;20030;-73
2022/09/24 02:12:00;;;;;;;6.78;6.18;;;;;;;11.93;100.00;100836.88;6055614;23;20160;-75
2022/09/24 02:14:31;;;;;;;9.43;6.68;;;;;;;11.55;100.00;100787.22;6018840;23;20093;-73
2022/09/24 02:16:59;;;;;;;6.57;6.13;;;;;;;11.80;100.00;100827.94;6053070;23;20022;-73
2022/09/24 02:19:29;;;;;;;7.82;7.07;;;;;;;11.83;100.00;100819.03;6022163;23;20042;-73
2022/09/24 02:21:56;;;;;;;6.57;5.97;;;;;;;11.94;100.00;100838.56;6048825;23;20019;-74
2022/09/24 02:24:44;;;;;;;6.47;6.00;;;;;;;11.94;100.00;100830.66;6026068;23;20584;-72
2022/09/24 02:27:11;;;;;;;5.60;5.15;;;;;;;11.95;100.00;100850.78;6044453;23;20018;-73
2022/09/24 02:29:37;;;;;;;7.57;6.90;;;;;;;11.80;100.00;100808.69;6019453;23;20022;-74
2022/09/24 02:32:06;;;;;;;10.38;6.72;;;;;;;11.48;100.00;100750.84;6048873;23;20873;-74
2022/09/24 02:34:39;;;;;;;7.45;6.95;;;;;;;11.92;100.00;100815.91;6019201;23;20579;-74
2022/09/24 02:37:10;;;;;;;7.20;6.60;;;;;;;11.90;100.00;100816.00;6058065;23;20023;-73
2022/09/24 02:39:37;;;;;;;7.57;6.55;;;;;;;11.53;100.00;100752.28;6020896;23;20014;-74
2022/09/24 02:42:05;;;;;;;6.50;5.90;;;;;;;11.63;100.00;100767.56;6054243;23;20352;-74
2022/09/24 02:44:32;;;;;;;7.88;7.18;;;;;;;11.83;100.00;100793.59;6022055;23;20509;-72
2022/09/24 02:46:59;;;;;;;6.20;5.80;;;;;;;11.60;100.00;100752.78;6050454;23;20026;-74
2022/09/24 02:49:26;;;;;;;7.75;7.15;;;;;;;11.45;100.00;100728.22;6002951;23;20081;-74
2022/09/24 02:51:53;;;;;;;5.93;5.53;;;;;;;11.55;100.00;100742.53;5990396;23;20022;-74
2022/09/24 02:54:19;;;;;;;6.65;6.10;;;;;;;11.90;100.00;100802.84;6054739;23;20015;-74
2022/09/24 02:56:45;;;;;;;11.55;6.38;;;;;;;11.91;100.00;100794.03;6017120;23;20007;-73
2022/09/24 02:59:12;;;;;;;6.43;6.03;;;;;;;11.82;100.00;100784.00;6060223;23;20037;-75
2022/09/24 03:01:39;;;;;;;6.68;6.15;;;;;;;11.51;100.00;100719.16;6017532;23;20068;-74
2022/09/24 03:04:05;;;;;;;6.25;5.85;;;;;;;11.89;100.00;100788.00;6058401;23;20018;-75
2022/09/24 03:06:32;;;;;;;7.10;6.60;;;;;;;11.75;100.00;100777.41;6022605;23;20011;-74
2022/09/24 03:09:01;;;;;;;6.80;6.25;;;;;;;11.85;100.00;100783.84;6077886;23;20030;-74
2022/09/24 03:11:28;;;;;;;8.15;7.57;;;;;;;11.41;100.00;100717.97;6029344;23;20087;-74
2022/09/24 03:13:54;;;;;;;6.57;6.07;;;;;;;11.55;100.00;100758.31;6067202;23;20018;-74
2022/09/24 03:16:20;;;;;;;7.65;6.90;;;;;;;11.67;100.00;100753.31;6050513;23;20041;-73
2022/09/24 03:18:47;;;;;;;6.50;6.05;;;;;;;11.73;100.00;100768.75;6077752;23;20018;-74
2022/09/24 03:21:16;;;;;;;16.95;5.55;;;;;;;11.72;100.00;100772.28;6052981;23;20021;-74
2022/09/24 03:23:43;;;;;;;6.72;6.22;;;;;;;11.30;100.00;100708.03;6078330;23;20029;-73
2022/09/24 03:26:10;;;;;;;7.03;6.50;;;;;;;11.33;100.00;100713.13;6048763;23;20528;-72
2022/09/24 03:28:37;;;;;;;7.32;6.82;;;;;;;11.02;100.00;100678.00;6055789;23;20501;-74
2022/09/24 03:31:04;;;;;;;9.85;7.38;;;;;;;11.52;100.00;100755.00;6052233;23;20023;-73
2022/09/24 03:33:40;;;;;;;6.65;6.05;;;;;;;10.96;100.00;100671.34;6076730;23;20623;-76
2022/09/24 03:36:10;;;;;;;6.93;6.22;;;;;;;11.42;100.00;100759.06;6053727;23;20084;-75
2022/09/24 03:38:38;;;;;;;6.88;6.22;;;;;;;10.94;100.00;100688.09;6073970;23;20021;-75
2022/09/24 03:41:06;;;;;;;6.93;6.32;;;;;;;11.36;100.00;100757.63;6060829;23;20006;-74
2022/09/24 03:43:34;;;;;;;8.30;7.50;;;;;;;11.33;100.00;100752.53;6076438;23;20018;-75
2022/09/24 03:46:01;;;;;;;6.03;5.53;;;;;;;11.32;100.00;100748.22;6055958;23;20010;-74
2022/09/24 03:48:28;;;;;;;8.23;7.40;;;;;;;10.31;100.00;100582.06;6073815;23;20045;-75
2022/09/24 03:50:55;;;;;;;8.13;6.30;;;;;;;11.28;100.00;100751.94;6046559;23;20057;-74
2022/09/24 03:53:22;;;;;;;8.73;7.00;;;;;;;11.03;100.00;100723.53;6079124;23;20010;-75
2022/09/24 03:55:57;;;;;;;7.60;6.95;;;;;;;11.21;100.00;100740.09;6048981;23;20014;-73
2022/09/24 03:58:24;;;;;;;7.88;7.15;;;;;;;11.28;100.00;100757.19;6076560;23;20081;-74
2022/09/24 04:00:52;;;;;;;9.02;8.13;;;;;;;10.88;100.00;100707.63;6052541;23;20006;-75
2022/09/24 04:03:20;;;;;;;7.88;7.28;;;;;;;11.28;100.00;100751.94;6053494;23;20066;-74
2022/09/24 04:05:47;;;;;;;7.05;6.30;;;;;;;10.98;100.00;100703.63;6072147;23;20161;-74
2022/09/24 04:08:13;;;;;;;8.77;7.88;;;;;;;10.77;100.00;100689.00;6082121;23;20021;-74
2022/09/24 04:10:39;;;;;;;6.97;6.45;;;;;;;11.25;100.00;100746.88;6032792;23;20556;-74
2022/09/24 04:13:06;;;;;;;6.97;6.47;;;;;;;10.59;100.00;100638.34;6087687;23;20426;-73
2022/09/24 04:15:32;;;;;;;8.10;7.40;;;;;;;11.01;100.00;100728.84;6079726;23;20017;-72
2022/09/24 04:17:58;;;;;;;7.35;6.75;;;;;;;10.98;100.00;100703.63;6082502;23;20048;-74
2022/09/24 04:20:27;;;;;;;8.80;7.72;;;;;;;11.22;100.00;100744.38;6078547;23;20021;-75
2022/09/24 04:22:55;;;;;;;6.57;6.03;;;;;;;11.17;100.00;100748.13;6022518;23;21525;-73
2022/09/24 04:25:23;;;;;;;7.05;6.45;;;;;;;11.13;100.00;100774.63;6085314;23;20030;-73
2022/09/24 04:28:01;;;;;;;7.82;7.10;;;;;;;11.00;100.00;100732.41;6057061;23;20085;-74
2022/09/24 04:30:30;;;;;;;9.15;8.35;;;;;;;10.88;100.00;100705.00;6087723;23;20021;-74
2022/09/24 04:32:59;;;;;;;6.22;5.82;;;;;;;11.14;100.00;100748.25;6053730;23;20026;-74
2022/09/24 04:35:28;;;;;;;8.18;7.50;;;;;;;11.15;100.00;100747.34;6113634;23;20091;-75
2022/09/24 04:37:55;;;;;;;7.65;6.75;;;;;;;11.16;100.00;100751.69;6087414;23;20024;-74
2022/09/24 04:40:22;;;;;;;8.05;7.35;;;;;;;11.16;100.00;100743.81;6093994;23;20026;-72
2022/09/24 04:42:48;;;;;;;8.88;6.93;;;;;;;10.69;100.00;100657.06;6061370;23;20562;-74
2022/09/24 04:45:18;;;;;;;6.80;6.22;;;;;;;11.11;100.00;100727.44;6091559;23;20022;-75
2022/09/24 04:47:51;;;;;;;6.97;6.47;;;;;;;11.23;100.00;100743.47;6026838;23;20030;-74
2022/09/24 04:50:18;;;;;;;7.43;6.85;;;;;;;11.11;100.00;100722.19;6090037;23;20034;-73
2022/09/24 04:52:45;;;;;;;6.20;5.80;;;;;;;10.76;100.00;100661.91;6055421;23;20030;-73
2022/09/24 04:55:11;;;;;;;6.68;6.18;;;;;;;11.20;100.00;100723.44;6093075;23;20013;-74
2022/09/24 04:57:37;;;;;;;6.60;6.22;;;;;;;11.28;100.00;100731.75;6058442;23;20211;-76
2022/09/24 05:00:08;;;;;;;9.35;7.40;;;;;;;11.30;100.00;100731.69;6093525;23;20022;-74
2022/09/24 05:02:34;;;;;;;8.40;7.22;;;;;;;10.38;100.00;100590.47;6057703;23;20029;-74
2022/09/24 05:05:00;;;;;;;7.80;6.97;;;;;;;11.05;100.00;100692.78;6079606;23;20026;-75
2022/09/24 05:07:27;;;;;;;8.68;7.90;;;;;;;11.10;100.00;100717.00;6060809;23;20094;-74
2022/09/24 05:09:53;;;;;;;6.90;6.30;;;;;;;11.24;100.00;100718.88;6058636;23;20033;-73
2022/09/24 05:12:20;;;;;;;8.65;7.82;;;;;;;11.34;100.00;100733.19;6045501;23;20606;-74
2022/09/24 05:14:47;;;;;;;7.63;7.00;;;;;;;11.15;100.00;100699.22;6099834;23;20024;-73
2022/09/24 05:17:14;;;;;;;7.35;6.65;;;;;;;10.95;100.00;100668.78;6071828;23;20021;-74
2022/09/24 05:19:40;;;;;;;6.63;6.18;;;;;;;11.33;100.00;100731.53;6105694;23;20018;-74
2022/09/24 05:22:06;;;;;;;7.63;6.55;;;;;;;10.56;100.00;100601.75;6084292;23;20358;-72
2022/09/24 05:24:33;;;;;;;10.98;8.40;;;;;;;11.18;100.00;100701.66;6106257;23;20067;-75
2022/09/24 05:27:08;;;;;;;7.72;7.13;;;;;;;10.72;100.00;100625.41;6069019;23;20014;-74
2022/09/24 05:29:40;;;;;;;8.55;7.75;;;;;;;11.32;100.00;100720.16;6081461;23;20071;-75
2022/09/24 05:32:11;;;;;;;6.75;6.05;;;;;;;10.77;100.00;100626.00;6053642;23;20088;-73
2022/09/24 05:34:40;;;;;;;6.75;6.18;;;;;;;10.96;100.00;100679.22;6083504;23;20092;-75
2022/09/24 05:37:06;;;;;;;9.65;6.60;;;;;;;10.69;100.00;100630.81;6052038;23;20075;-73
2022/09/24 05:39:32;;;;;;;8.43;7.63;;;;;;;11.04;100.00;100691.91;6023138;23;20157;-75
2022/09/24 05:42:02;;;;;;;7.07;6.45;;;;;;;11.13;100.00;100717.69;6073686;23;20030;-76
2022/09/24 05:44:30;;;;;;;8.25;7.45;;;;;;;10.87;100.00;100673.63;6078553;23;20041;-75
2022/09/24 05:46:56;;;;;;;7.18;6.43;;;;;;;11.23;100.00;100732.97;6050957;23;20110;-74
2022/09/24 05:49:23;;;;;;;11.75;8.32;;;;;;;11.24;100.00;100751.25;6021218;23;20022;-75
2022/09/24 05:51:50;;;;;;;7.22;6.53;;;;;;;10.87;100.00;100682.34;6055732;23;20014;-74
2022/09/24 05:54:17;;;;;;;6.65;6.07;;;;;;;11.11;100.00;100722.19;6083319;23;20022;-73
2022/09/24 05:56:43;;;;;;;7.85;7.07;;;;;;;11.30;100.00;100744.81;6063133;23;20089;-74
2022/09/24 05:59:10;;;;;;;6.93;6.43;;;;;;;11.31;100.00;100746.53;6118388;23;20368;-73
2022/09/24 06:01:37;;;;;;;8.15;7.38;;;;;;;10.27;100.00;100579.69;6064998;23;20080;-75
2022/09/24 06:04:03;;;;;;;7.05;6.55;;;;;;;11.01;100.00;100699.97;6022644;23;20054;-75
2022/09/24 06:06:34;;;;;;;9.63;8.48;;;;;;;11.37;100.00;100738.31;6082897;23;20073;-74
2022/09/24 06:09:00;;;;;;;10.25;7.20;;;;;;;11.30;100.00;100729.88;6030164;23;20026;-75
2022/09/24 06:11:28;;;;;;;8.15;7.47;;;;;;;11.12;100.00;100688.88;6081420;23;20028;-74
2022/09/24 06:13:54;;;;;;;6.88;6.25;;;;;;;11.35;100.00;100724.41;6055260;23;20010;-75
2022/09/24 06:16:21;;;;;;;7.07;6.55;;;;;;;11.14;100.00;100679.97;6068510;23;20026;-74
2022/09/24 06:18:47;;;;;;;6.43;5.85;;;;;;;11.61;100.00;100738.72;6020148;23;20869;-75
2022/09/24 06:21:16;;;;;;;9.20;6.88;;;;;;;11.67;100.00;100745.44;6088332;23;20041;-75
2022/09/24 06:23:44;;;;;;;6.78;6.18;;;;;;;11.20;100.00;100659.56;6067224;23;20672;-76
2022/09/24 06:26:12;;;;;;;8.68;7.97;;;;;;;11.83;100.00;100741.00;6089924;23;20134;-76
2022/09/24 06:28:39;;;;;;;8.70;7.88;;;;;;;11.47;100.00;100673.78;6039769;23;20596;-76
2022/09/24 06:31:08;;;;;;;7.38;6.65;;;;;;;11.66;100.00;100683.25;6091302;23;20006;-75
2022/09/24 06:33:34;;;;;;;20.02;18.83;;;;;;;12.17;100.00;100752.25;6040738;23;20452;-75
2022/09/24 06:36:03;;;;;;;9.07;7.07;;;;;;;11.89;100.00;100684.63;5987282;23;20016;-75
2022/09/24 06:38:30;;;;;;;8.70;7.38;;;;;;;11.78;100.00;100651.00;6081525;23;20033;-74
2022/09/24 06:41:01;;;;;;;7.22;6.53;;;;;;;12.29;100.00;100724.38;6105180;23;20014;-74
2022/09/24 06:43:28;;;;;;;9.27;8.57;;;;;;;12.47;100.00;100748.72;6086267;23;20005;-75
2022/09/24 06:45:55;;;;;;;7.65;7.00;;;;;;;12.07;100.00;100666.91;6042331;23;20067;-73
2022/09/24 06:48:22;;;;;;;9.73;7.80;;;;;;;11.52;100.00;100598.16;6110528;23;20016;-74
2022/09/24 06:50:49;;;;;;;7.03;6.47;;;;;;;12.32;100.00;100725.00;6074854;23;20071;-77
2022/09/24 06:53:15;;;;;;;11.18;6.28;;;;;;;12.06;100.00;100657.31;6078489;23;20030;-74
2022/09/24 06:55:41;;;;;;;14.05;7.63;;;;;;;12.34;100.00;100709.97;6060606;23;20014;-75
2022/09/24 06:58:11;;;;;;;9.23;6.50;;;;;;;12.58;100.00;100741.06;6098642;23;20033;-74
2022/09/24 07:00:37;;;;;;;8.63;7.60;;;;;;;12.64;100.00;100743.31;6061132;23;20026;-75
2022/09/24 07:03:05;;;;;;;6.80;6.22;;;;;;;13.00;100.00;100759.63;6104355;23;20029;-72
2022/09/24 07:05:33;;;;;;;9.43;7.75;;;;;;;12.90;100.00;100712.75;6077022;23;20026;-74
2022/09/24 07:08:04;;;;;;;7.18;6.68;;;;;;;12.87;100.00;100680.50;6024355;23;20186;-73
2022/09/24 07:10:31;;;;;;;13.80;8.80;;;;;;;13.48;100.00;100754.91;6074317;23;20025;-75
2022/09/24 07:12:57;;;;;;;8.35;7.63;;;;;;;12.71;100.00;100605.09;6064324;23;20092;-75
2022/09/24 07:15:24;;;;;;;9.38;8.43;;;;;;;13.36;100.00;100694.09;6103287;23;20090;-75
2022/09/24 07:17:54;;;;;;;10.05;7.70;;;;;;;13.61;100.00;100716.25;6019534;23;20019;-75
2022/09/24 07:20:21;;;;;;;15.05;7.85;;;;;;;13.72;100.00;100755.97;6079121;23;20053;-75
2022/09/24 07:22:47;;;;;;;8.25;7.40;;;;;;;13.18;100.00;100709.25;6047422;23;20030;-73
2022/09/24 07:25:14;;;;;;;7.45;6.75;;;;;;;12.95;100.00;100687.00;6105794;23;20087;-76
2022/09/24 07:27:40;;;;;;;8.43;7.57;;;;;;;13.12;100.00;100711.44;6050107;23;20338;-73
2022/09/24 07:30:08;;;;;;;8.38;7.13;;;;;;;13.28;100.00;100751.69;6023684;23;20023;-74
2022/09/24 07:32:35;;;;;;;9.10;8.50;;;;;;;12.80;100.00;100658.97;6072413;23;20479;-74
2022/09/24 07:35:01;;;;;;;9.23;7.82;;;;;;;13.40;100.00;100744.84;6052661;23;20088;-75
2022/09/24 07:37:31;;;;;;;10.88;9.15;;;;;;;13.61;100.00;100749.69;6057979;23;20089;-75
2022/09/24 07:39:58;;;;;;;8.15;7.47;;;;;;;13.85;100.00;100773.63;6061309;23;20022;-74
2022/09/24 07:42:24;;;;;;;11.82;9.20;;;;;;;13.75;100.00;100717.97;6076118;23;20032;-73
2022/09/24 07:44:51;;;;;;;7.93;7.10;;;;;;;13.70;100.00;100718.28;6112020;23;20026;-75
2022/09/24 07:47:17;;;;;;;8.38;7.47;;;;;;;13.95;100.00;100743.91;6098869;23;20100;-75
2022/09/24 07:49:44;;;;;;;11.48;8.88;;;;;;;13.90;100.00;100705.59;6081934;23;20430;-75
2022/09/24 07:52:11;;;;;;;7.55;6.95;;;;;;;14.54;100.00;100780.47;6064109;23;20102;-75
2022/09/24 07:54:37;;;;;;;8.93;8.18;;;;;;;14.27;100.00;100738.31;6091076;23;20347;-75
2022/09/24 07:57:11;;;;;;;9.23;7.30;;;;;;;14.04;100.00;100687.03;6063073;23;20025;-75
2022/09/24 07:59:37;;;;;;;9.60;8.80;;;;;;;14.56;100.00;100765.41;6080073;23;20191;-76
2022/09/24 08:02:13;;;;;;;8.10;7.40;;;;;;;14.66;100.00;100773.53;6081856;23;20180;-75
2022/09/24 08:04:39;;;;;;;8.73;7.95;;;;;;;14.69;100.00;100776.00;6124872;23;20012;-75
2022/09/24 08:07:05;;;;;;;10.45;7.38;;;;;;;13.91;100.00;100647.47;6084053;23;20037;-74
2022/09/24 08:09:32;;;;;;;7.75;7.03;;;;;;;14.41;100.00;100715.38;6110191;23;20014;-75
2022/09/24 08:11:58;;;;;;;8.35;7.55;;;;;;;14.71;100.00;100784.66;6067463;23;20093;-75
2022/09/24 08:14:24;;;;;;;8.77;7.97;;;;;;;14.30;100.00;100708.22;6021320;23;20026;-74
2022/09/24 08:16:51;;;;;;;8.02;7.05;;;;;;;12.49;100.00;100452.91;6054500;23;20098;-75
2022/09/24 08:19:17;;;;;;;10.15;7.78;;;;;;;13.15;100.00;100553.16;6025885;23;20527;-75
2022/09/24 08:21:43;;;;;;;7.47;6.78;;;;;;;14.27;100.00;100751.50;6062193;23;20022;-74
2022/09/24 08:24:10;;;;;;;8.13;7.38;;;;;;;13.70;100.00;100672.63;6088962;23;20037;-75
2022/09/24 08:26:37;;;;;;;9.00;7.72;;;;;;;14.44;100.00;100783.84;6071635;23;20015;-75
2022/09/24 08:29:03;;;;;;;9.65;8.10;;;;;;;14.15;100.00;100742.59;6100306;23;20002;-76
2022/09/24 08:31:30;;;;;;;11.35;9.05;;;;;;;13.99;100.00;100743.72;6064283;23;20030;-78
2022/09/24 08:33:56;;;;;;;8.32;7.32;;;;;;;14.18;100.00;100736.28;6085230;23;20028;-75
2022/09/24 08:36:23;;;;;;;8.98;8.10;;;;;;;14.03;100.00;100716.16;6079952;23;20172;-75
2022/09/24 08:38:54;;;;;;;8.13;7.40;;;;;;;14.32;100.00;100746.75;6046856;23;20034;-75
2022/09/24 08:41:36;;;;;;;10.02;8.00;;;;;;;14.71;100.00;100786.44;6106587;23;20078;-76
2022/09/24 08:47:21;;;;;;;8.85;7.95;;;;;;;14.45;100.00;100738.88;6054047;23;20033;-76
2022/09/24 08:47:21;;;;;;;8.68;7.80;;;;;;;14.86;100.00;100780.09;6116175;23;20021;-76
2022/09/24 08:49:54;;;;;;;12.20;7.50;;;;;;;15.04;100.00;100782.44;6081976;23;20108;-75
2022/09/24 08:52:29;;;;;;;8.82;8.02;;;;;;;15.15;100.00;100785.16;6113154;23;20022;-74
2022/09/24 08:55:01;;;;;;;8.52;7.22;;;;;;;15.04;100.00;100753.38;6084555;23;20601;-75
2022/09/24 08:57:27;;;;;;;9.97;8.97;;;;;;;15.28;100.00;100795.75;6096649;23;20047;-77
2022/09/24 08:59:54;;;;;;;8.73;7.65;;;;;;;15.00;100.00;100731.59;6087657;23;20041;-74
2022/09/24 09:02:40;;;;;;;10.85;8.68;;;;;;;15.43;100.00;100789.34;6106560;23;20021;-75
2022/09/24 09:05:07;;;;;;;10.60;7.75;;;;;;;15.84;100.00;100788.22;6080526;23;20658;-75
2022/09/24 09:07:47;;;;;;;10.07;8.45;;;;;;;16.11;100.00;100785.31;6116420;23;20071;-75
2022/09/24 09:10:28;;;;;;;9.57;7.68;;;;;;;16.32;100.00;100780.25;6081148;23;20745;-76
2022/09/24 09:13:14;;;;;;;9.60;7.80;;;;;;;16.22;100.00;100773.13;6110141;23;20033;-73
2022/09/24 09:16:05;;;;;;;14.05;9.20;;;;;;;16.31;100.00;100777.69;6054901;23;20647;-74
2022/09/24 09:18:37;;;;;;;14.80;9.18;;;;;;;16.12;100.00;100742.00;6057368;23;20771;-76
2022/09/24 09:21:13;;;;;;;;;;;;;;;16.41;100.00;100784.00;6033552;23;20030;-74
2022/09/24 09:23:49;;;;;;;9.52;8.63;;;;;;;16.25;100.00;100749.03;6079947;23;19914;-76
2022/09/24 09:26:17;;;;;;;8.95;8.13;;;;;;;16.24;100.00;100736.78;6104776;23;20079;-76
2022/09/24 09:28:45;;;;;;;8.95;8.15;;;;;;;16.53;100.00;100776.91;6058452;23;20026;-75
2022/09/24 09:31:31;;;;;;;9.93;8.38;;;;;;;15.75;100.00;100649.50;6092639;23;20013;-74
2022/09/24 09:34:28;;;;;;;7.70;7.00;;;;;;;16.85;100.00;100795.69;6083083;23;20431;-74
2022/09/24 09:37:18;;;;;;;9.30;8.27;;;;;;;16.71;100.00;100770.22;6096030;23;20034;-76
2022/09/24 09:40:04;;;;;;;10.45;8.90;;;;;;;16.98;99.33;100794.72;6026049;23;20022;-74
2022/09/24 09:42:35;;;;;;;12.38;10.13;;;;;;;16.96;99.65;100789.56;6077893;23;20549;-75
2022/09/24 09:45:20;;;;;;;10.75;8.82;;;;;;;17.13;100.00;100783.78;6051189;23;20085;-75
2022/09/24 09:47:55;;;;;;;9.05;8.18;;;;;;;17.29;100.00;100786.06;6110660;23;20017;-74
2022/09/24 09:50:35;;;;;;;11.93;9.35;;;;;;;16.96;100.00;100781.63;6081192;23;20028;-77
2022/09/24 09:53:04;;;;;;;9.05;8.30;;;;;;;16.62;100.00;100731.19;6147931;23;20698;-75
2022/09/24 09:55:35;;;;;;;10.00;8.60;;;;;;;16.77;99.79;100739.75;6081730;23;20623;-74
2022/09/24 09:58:13;;;;;;;11.70;9.45;;;;;;;16.99;100.00;100780.53;6138934;23;20114;-76
2022/09/24 10:00:41;;;;;;;12.98;9.13;;;;;;;16.70;99.88;100733.25;6111206;23;20096;-74
2022/09/24 10:03:26;;;;;;;11.13;9.18;;;;;;;16.67;100.00;100729.00;6138900;23;20092;-75
2022/09/24 10:06:05;;;;;;;10.95;9.02;;;;;;;16.96;100.00;100773.66;6105895;23;20043;-75
2022/09/24 10:08:31;;;;;;;13.30;10.15;;;;;;;16.49;100.00;100730.44;6114975;23;20033;-75
2022/09/24 10:10:59;;;;;;;10.95;8.77;;;;;;;16.79;100.00;100788.19;6050837;23;20007;-74
2022/09/24 10:13:26;;;;;;;11.57;9.60;;;;;;;16.71;100.00;100790.56;6107007;23;20025;-74
2022/09/24 10:15:56;;;;;;;9.13;8.23;;;;;;;16.50;100.00;100791.25;6077872;23;20026;-76
2022/09/24 10:18:31;;;;;;;9.98;9.10;;;;;;;16.43;100.00;100762.69;6111448;23;20017;-75
2022/09/24 10:21:01;;;;;;;8.88;7.82;;;;;;;16.25;100.00;100733.16;6093658;23;20087;-75
2022/09/24 10:23:35;;;;;;;11.10;9.30;;;;;;;16.89;100.00;100794.50;6114761;23;20017;-74
2022/09/24 10:26:03;;;;;;;8.05;7.25;;;;;;;16.64;100.00;100728.44;6082212;23;20081;-74
2022/09/24 10:31:21;;;;;;;9.30;8.38;;;;;;;16.84;100.00;100780.75;6085146;23;20029;-74
2022/09/24 10:33:51;;;;;;;13.30;7.68;;;;;;;17.00;100.00;100795.47;6107749;23;20018;-74
2022/09/24 10:36:23;;;;;;;11.40;8.13;;;;;;;16.73;100.00;100762.97;6078685;23;20014;-76
2022/09/24 10:39:11;;;;;;;10.25;8.52;;;;;;;16.82;100.00;100768.56;6053435;23;20026;-75
2022/09/24 10:41:45;;;;;;;10.80;9.60;;;;;;;17.03;100.00;100779.31;6070834;23;20014;-75
2022/09/24 10:44:12;;;;;;;9.02;8.23;;;;;;;17.19;100.00;100802.84;6048367;23;20026;-75
2022/09/24 10:46:47;;;;;;;10.27;9.02;;;;;;;17.26;99.80;100801.38;6110389;23;20021;-74
2022/09/24 10:49:39;;;;;;;13.50;8.93;;;;;;;17.24;99.94;100796.22;6075562;23;20030;-74
2022/09/24 10:52:28;;;;;;;9.20;8.30;;;;;;;17.35;99.96;100806.81;6111379;23;20086;-75
2022/09/24 10:55:13;;;;;;;10.13;8.85;;;;;;;17.38;99.45;100795.13;6080676;23;20083;-75
2022/09/24 10:57:55;;;;;;;9.57;8.68;;;;;;;17.36;97.49;100802.38;6104179;23;20079;-75
2022/09/24 11:00:26;;;;;;;13.10;9.18;;;;;;;17.32;97.40;100792.97;6082533;23;20025;-75
2022/09/24 11:03:13;;;;;;;9.52;8.55;;;;;;;17.24;97.12;100792.69;6109265;23;20577;-75
2022/09/24 11:05:48;;;;;;;9.43;8.43;;;;;;;17.22;97.26;100790.19;6057577;23;20067;-75
2022/09/24 11:08:54;;;;;;;9.77;8.75;;;;;;;16.63;97.15;100665.78;6119794;23;20037;-75
2022/09/24 11:11:30;;;;;;;11.45;8.73;;;;;;;17.35;95.54;100790.88;6077830;23;20018;-77
2022/09/24 11:14:15;;;;;;;10.98;8.63;;;;;;;16.80;95.19;100754.56;6110830;23;20017;-72
2022/09/24 11:16:53;;;;;;;8.93;8.10;;;;;;;17.34;96.76;100791.88;6078477;23;20009;-74
2022/09/24 11:19:50;;;;;;;12.73;8.70;;;;;;;16.87;95.62;100777.03;6103473;23;20060;-74
2022/09/24 11:22:27;;;;;;;13.75;8.68;;;;;;;16.73;97.38;100719.75;6080952;23;20029;-73
2022/09/24 11:25:24;;;;;;;10.95;8.85;;;;;;;17.19;97.02;100793.06;6118010;23;20518;-74
2022/09/24 11:28:11;;;;;;;11.02;8.73;;;;;;;16.74;97.30;100716.16;6078294;23;20856;-74
2022/09/24 11:30:57;;;;;;;16.58;11.10;;;;;;;16.65;97.10;100698.31;6104395;23;20041;-75
2022/09/24 11:33:32;;;;;;;10.88;9.35;;;;;;;17.31;96.82;100794.75;6052596;23;20011;-73
2022/09/24 11:36:07;;;;;;;9.55;8.55;;;;;;;16.98;95.63;100744.38;6116915;23;20025;-75
2022/09/24 11:38:52;;;;;;;10.93;9.85;;;;;;;17.30;95.70;100790.41;6081533;23;20006;-75
2022/09/24 11:41:38;;;;;;;17.60;10.07;;;;;;;16.99;96.33;100794.63;6106447;23;20568;-75